Bosphorus Asia — 3FVK3 — position and weather

sailwx.info

Track history (hours):
 
Tides and Currents Weather Stations Pressure Air Temp Water Temp Dewpoint Dewpoint Depression Visibility Wind Speed Wind Dir Waves Ship Positions

Bosphorus Asia

Last reported at 2018-Apr-20 12:41 UTC. Time now 2018-Apr-26 17:19 UTC.
Position S 29°43' E 031°47'.

Length 177 m; draft 10.6 m.

Type: Cargo ship. MMSI: 353063000.

Date/timePositionNaut miles runAvg speedWind from/ knotsBaromVisibWave heightAir tempDewpointWater temp
2018-Apr-20 12:41S 29°43' E 031°47'2 9.7
2018-Apr-20 12:29S 29°43' E 031°45'5 9.3
2018-Apr-20 12:00S 29°45' E 031°40'5 9.7
2018-Apr-20 11:30S 29°46' E 031°34'5 9.9
2018-Apr-20 11:00S 29°47' E 031°29'611.1
2018-Apr-20 10:30S 29°48' E 031°23'611.7
2018-Apr-20 10:00S 29°49' E 031°16'611.1
2018-Apr-20 09:30S 29°50' E 031°10'1 3.0
2018-Apr-20 09:00S 29°51' E 031°09'1 1.2
2018-Apr-20 08:30S 29°52' E 031°08'1 1.5
2018-Apr-20 08:00S 29°53' E 031°08'1 2.8
2018-Apr-20 07:30S 29°53' E 031°10'3 5.4
2018-Apr-20 07:00S 29°50' E 031°10'2 4.9
2018-Apr-20 06:30S 29°48' E 031°10'2 3.7
2018-Apr-20 06:00S 29°46' E 031°10'0 0.3
2018-Apr-20 05:30S 29°46' E 031°10'0 0.0
2018-Apr-20 05:00S 29°46' E 031°10'0 0.0
2018-Apr-20 04:30S 29°46' E 031°10'0 0.0
2018-Apr-20 03:59S 29°46' E 031°10'0 0.0
2018-Apr-20 03:30S 29°46' E 031°10'0 0.0
2018-Apr-20 03:00S 29°46' E 031°10'0 0.0
2018-Apr-20 02:30S 29°46' E 031°10'0 0.2
2018-Apr-20 02:00S 29°46' E 031°10'3 5.1
2018-Apr-20 01:30S 29°48' E 031°09'510.7
2018-Apr-20 01:00S 29°53' E 031°08'612.4
2018-Apr-20 00:30S 29°59' E 031°07'611.8
2018-Apr-20 00:00S 30°05' E 031°05'611.7
2018-Apr-19 23:30S 30°10' E 031°02'612.1
2018-Apr-19 23:00S 30°16' E 030°59'  
Track history (hours):
 
Tides and Currents Weather Stations Pressure Air Temp Water Temp Dewpoint Dewpoint Depression Visibility Wind Speed Wind Dir Waves Ship Positions

Bosphorus Asia

Last reported at 2018-Apr-20 12:41 UTC. Time now 2018-Apr-26 17:19 UTC.
Position S 29°43' E 031°47'.

Length 177 m; draft 10.6 m.

Type: Cargo ship. MMSI: 353063000.

Date/timePositionNaut miles runAvg speedWind from/ knotsBaromVisibWave heightAir tempDewpointWater temp
2018-Apr-20 12:41S 29°43' E 031°47'2 9.7
2018-Apr-20 12:29S 29°43' E 031°45'5 9.3
2018-Apr-20 12:00S 29°45' E 031°40'5 9.7
2018-Apr-20 11:30S 29°46' E 031°34'5 9.9
2018-Apr-20 11:00S 29°47' E 031°29'611.1
2018-Apr-20 10:30S 29°48' E 031°23'611.7
2018-Apr-20 10:00S 29°49' E 031°16'611.1
2018-Apr-20 09:30S 29°50' E 031°10'1 3.0
2018-Apr-20 09:00S 29°51' E 031°09'1 1.2
2018-Apr-20 08:30S 29°52' E 031°08'1 1.5
2018-Apr-20 08:00S 29°53' E 031°08'1 2.8
2018-Apr-20 07:30S 29°53' E 031°10'3 5.4
2018-Apr-20 07:00S 29°50' E 031°10'2 4.9
2018-Apr-20 06:30S 29°48' E 031°10'2 3.7
2018-Apr-20 06:00S 29°46' E 031°10'0 0.3
2018-Apr-20 05:30S 29°46' E 031°10'0 0.0
2018-Apr-20 05:00S 29°46' E 031°10'0 0.0
2018-Apr-20 04:30S 29°46' E 031°10'0 0.0
2018-Apr-20 03:59S 29°46' E 031°10'0 0.0
2018-Apr-20 03:30S 29°46' E 031°10'0 0.0
2018-Apr-20 03:00S 29°46' E 031°10'0 0.0
2018-Apr-20 02:30S 29°46' E 031°10'0 0.2
2018-Apr-20 02:00S 29°46' E 031°10'3 5.1
2018-Apr-20 01:30S 29°48' E 031°09'510.7
2018-Apr-20 01:00S 29°53' E 031°08'612.4
2018-Apr-20 00:30S 29°59' E 031°07'611.8
2018-Apr-20 00:00S 30°05' E 031°05'611.7
2018-Apr-19 23:30S 30°10' E 031°02'612.1
2018-Apr-19 23:00S 30°16' E 030°59'  

Dump ship's entire track history